sensor_id;sensor_type;location;lat;lon;timestamp;pressure;altitude;pressure_sealevel;temperature;humidity
5609;BME280;2826;51.354;9.588;2024-02-28T00:00:24;98346.16;;;4.35;79.50
5609;BME280;2826;51.354;9.588;2024-02-28T00:02:51;98337.53;;;4.39;79.30
5609;BME280;2826;51.354;9.588;2024-02-28T00:05:17;98335.88;;;4.37;79.92
5609;BME280;2826;51.354;9.588;2024-02-28T00:07:44;98334.19;;;4.34;79.86
5609;BME280;2826;51.354;9.588;2024-02-28T00:10:12;98336.72;;;4.37;79.63
5609;BME280;2826;51.354;9.588;2024-02-28T00:12:39;98310.31;;;4.26;79.62
5609;BME280;2826;51.354;9.588;2024-02-28T00:15:07;98352.13;;;4.37;79.12
5609;BME280;2826;51.354;9.588;2024-02-28T00:17:38;98347.03;;;4.34;79.39
5609;BME280;2826;51.354;9.588;2024-02-28T00:20:07;98353.00;;;4.36;79.31
5609;BME280;2826;51.354;9.588;2024-02-28T00:22:33;98358.09;;;4.38;79.55
5609;BME280;2826;51.354;9.588;2024-02-28T00:25:00;98359.81;;;4.39;79.20
5609;BME280;2826;51.354;9.588;2024-02-28T00:27:26;98368.44;;;4.33;79.37
5609;BME280;2826;51.354;9.588;2024-02-28T00:29:53;98374.47;;;4.30;79.48
5609;BME280;2826;51.354;9.588;2024-02-28T00:32:21;98374.50;;;4.26;79.85
5609;BME280;2826;51.354;9.588;2024-02-28T00:34:48;98391.66;;;4.21;79.85
5609;BME280;2826;51.354;9.588;2024-02-28T00:37:14;98390.88;;;4.12;80.26
5609;BME280;2826;51.354;9.588;2024-02-28T00:39:43;98390.06;;;4.12;80.19
5609;BME280;2826;51.354;9.588;2024-02-28T00:42:10;98377.25;;;4.10;81.04
5609;BME280;2826;51.354;9.588;2024-02-28T00:44:36;98374.59;;;4.18;80.77
5609;BME280;2826;51.354;9.588;2024-02-28T00:47:03;98378.81;;;4.22;80.87
5609;BME280;2826;51.354;9.588;2024-02-28T00:49:31;98383.06;;;4.26;80.43
5609;BME280;2826;51.354;9.588;2024-02-28T00:51:57;98391.59;;;4.27;80.75
5609;BME280;2826;51.354;9.588;2024-02-28T00:54:24;98389.81;;;4.34;80.37
5609;BME280;2826;51.354;9.588;2024-02-28T00:56:51;98393.28;;;4.29;80.28
5609;BME280;2826;51.354;9.588;2024-02-28T00:59:17;98396.78;;;4.25;80.23
5609;BME280;2826;51.354;9.588;2024-02-28T01:01:44;98392.47;;;4.26;80.53
5609;BME280;2826;51.354;9.588;2024-02-28T01:04:10;98389.84;;;4.32;80.21
5609;BME280;2826;51.354;9.588;2024-02-28T01:06:38;98392.44;;;4.29;80.26
5609;BME280;2826;51.354;9.588;2024-02-28T01:09:05;98401.03;;;4.25;80.25
5609;BME280;2826;51.354;9.588;2024-02-28T01:11:35;98399.38;;;4.21;80.73
5609;BME280;2826;51.354;9.588;2024-02-28T01:14:23;98399.44;;;4.13;80.47
5609;BME280;2826;51.354;9.588;2024-02-28T01:16:50;98407.16;;;4.10;80.08
5609;BME280;2826;51.354;9.588;2024-02-28T01:19:16;98414.97;;;4.00;80.38
5609;BME280;2826;51.354;9.588;2024-02-28T01:21:44;98416.69;;;3.98;80.47
5609;BME280;2826;51.354;9.588;2024-02-28T01:24:11;98413.28;;;3.96;80.50
5609;BME280;2826;51.354;9.588;2024-02-28T01:26:38;98412.47;;;3.89;80.64
5609;BME280;2826;51.354;9.588;2024-02-28T01:29:04;98410.72;;;3.96;80.53
5609;BME280;2826;51.354;9.588;2024-02-28T01:31:31;98414.16;;;3.95;80.67
5609;BME280;2826;51.354;9.588;2024-02-28T01:33:58;98416.75;;;3.90;80.42
5609;BME280;2826;51.354;9.588;2024-02-28T01:36:24;98405.66;;;3.87;80.41
5609;BME280;2826;51.354;9.588;2024-02-28T01:38:54;98410.72;;;3.95;80.80
5609;BME280;2826;51.354;9.588;2024-02-28T01:41:20;98403.03;;;3.96;80.79
5609;BME280;2826;51.354;9.588;2024-02-28T01:43:47;98418.41;;;3.96;80.54
5609;BME280;2826;51.354;9.588;2024-02-28T01:46:20;98421.78;;;4.00;80.47
5609;BME280;2826;51.354;9.588;2024-02-28T01:48:48;98418.38;;;4.01;80.52
5609;BME280;2826;51.354;9.588;2024-02-28T01:51:15;98413.28;;;3.98;80.47
5609;BME280;2826;51.354;9.588;2024-02-28T01:53:42;98414.97;;;3.99;81.02
5609;BME280;2826;51.354;9.588;2024-02-28T01:56:11;98410.69;;;3.99;80.55
5609;BME280;2826;51.354;9.588;2024-02-28T01:58:38;98408.13;;;4.01;80.78
5609;BME280;2826;51.354;9.588;2024-02-28T02:01:05;98410.69;;;4.01;80.92
5609;BME280;2826;51.354;9.588;2024-02-28T02:03:32;98418.41;;;3.99;80.81
5609;BME280;2826;51.354;9.588;2024-02-28T02:06:00;98411.50;;;4.03;80.91
5609;BME280;2826;51.354;9.588;2024-02-28T02:08:27;98414.06;;;4.06;81.00
5609;BME280;2826;51.354;9.588;2024-02-28T02:10:54;98405.47;;;4.12;80.97
5609;BME280;2826;51.354;9.588;2024-02-28T02:13:23;98396.91;;;4.10;80.81
5609;BME280;2826;51.354;9.588;2024-02-28T02:15:49;98401.22;;;4.06;80.71
5609;BME280;2826;51.354;9.588;2024-02-28T02:18:16;98395.22;;;4.07;80.48
5609;BME280;2826;51.354;9.588;2024-02-28T02:20:44;98402.91;;;4.07;80.82
5609;BME280;2826;51.354;9.588;2024-02-28T02:23:14;98399.53;;;4.03;80.84
5609;BME280;2826;51.354;9.588;2024-02-28T02:25:44;98402.09;;;4.03;80.84
5609;BME280;2826;51.354;9.588;2024-02-28T02:28:11;98414.09;;;4.00;80.49
5609;BME280;2826;51.354;9.588;2024-02-28T02:30:38;98376.66;;;3.80;80.24
5609;BME280;2826;51.354;9.588;2024-02-28T02:33:05;98407.38;;;3.88;80.26
5609;BME280;2826;51.354;9.588;2024-02-28T02:35:32;98412.47;;;3.91;80.37
5609;BME280;2826;51.354;9.588;2024-02-28T02:37:59;98417.63;;;3.89;80.63
5609;BME280;2826;51.354;9.588;2024-02-28T02:40:27;98409.03;;;3.92;80.35
5609;BME280;2826;51.354;9.588;2024-02-28T02:42:54;98409.84;;;3.96;80.63
5609;BME280;2826;51.354;9.588;2024-02-28T02:45:20;98344.31;;;3.63;80.28
5609;BME280;2826;51.354;9.588;2024-02-28T02:47:47;98407.28;;;3.97;80.29
5609;BME280;2826;51.354;9.588;2024-02-28T02:50:13;98402.16;;;3.96;80.27
5609;BME280;2826;51.354;9.588;2024-02-28T02:52:40;98391.00;;;4.00;80.63
5609;BME280;2826;51.354;9.588;2024-02-28T02:55:07;98385.06;;;3.96;80.53
5609;BME280;2826;51.354;9.588;2024-02-28T02:57:35;98400.38;;;4.04;80.50
5609;BME280;2826;51.354;9.588;2024-02-28T03:00:02;98386.72;;;4.02;80.49
5609;BME280;2826;51.354;9.588;2024-02-28T03:02:29;98395.25;;;4.04;80.02
5609;BME280;2826;51.354;9.588;2024-02-28T03:04:55;98399.56;;;4.02;80.03
5609;BME280;2826;51.354;9.588;2024-02-28T03:07:22;98397.84;;;4.01;80.08
5609;BME280;2826;51.354;9.588;2024-02-28T03:09:49;98402.13;;;4.02;80.19
5609;BME280;2826;51.354;9.588;2024-02-28T03:12:16;98396.19;;;3.98;80.22
5609;BME280;2826;51.354;9.588;2024-02-28T03:14:44;98391.00;;;4.01;80.21
5609;BME280;2826;51.354;9.588;2024-02-28T03:17:10;98393.53;;;4.06;80.35
5609;BME280;2826;51.354;9.588;2024-02-28T03:19:36;98395.22;;;4.05;80.44
5609;BME280;2826;51.354;9.588;2024-02-28T03:22:03;98397.84;;;4.01;80.30
5609;BME280;2826;51.354;9.588;2024-02-28T03:24:30;98402.13;;;3.99;80.34
5609;BME280;2826;51.354;9.588;2024-02-28T03:26:56;98399.56;;;3.99;80.04
5609;BME280;2826;51.354;9.588;2024-02-28T03:29:23;98396.19;;;3.95;80.25
5609;BME280;2826;51.354;9.588;2024-02-28T03:31:51;98403.88;;;3.95;80.50
5609;BME280;2826;51.354;9.588;2024-02-28T03:34:17;98409.84;;;3.96;80.36
5609;BME280;2826;51.354;9.588;2024-02-28T03:36:45;98354.56;;;3.65;80.28
5609;BME280;2826;51.354;9.588;2024-02-28T03:39:12;98403.88;;;3.95;80.20
5609;BME280;2826;51.354;9.588;2024-02-28T03:41:39;98409.03;;;3.95;80.40
5609;BME280;2826;51.354;9.588;2024-02-28T03:44:06;98405.59;;;3.95;80.41
5609;BME280;2826;51.354;9.588;2024-02-28T03:46:32;98410.78;;;3.91;80.45
5609;BME280;2826;51.354;9.588;2024-02-28T03:49:00;98409.94;;;3.88;80.53
5609;BME280;2826;51.354;9.588;2024-02-28T03:51:27;98409.06;;;3.90;80.50
5609;BME280;2826;51.354;9.588;2024-02-28T03:53:54;98415.03;;;3.91;80.77
5609;BME280;2826;51.354;9.588;2024-02-28T03:56:22;98424.44;;;3.90;80.69
5609;BME280;2826;51.354;9.588;2024-02-28T03:58:49;98431.34;;;3.84;80.47
5609;BME280;2826;51.354;9.588;2024-02-28T04:01:15;98433.97;;;3.79;80.13
5609;BME280;2826;51.354;9.588;2024-02-28T04:03:42;98433.16;;;3.69;80.58
5609;BME280;2826;51.354;9.588;2024-02-28T04:06:10;98442.63;;;3.62;80.88
5609;BME280;2826;51.354;9.588;2024-02-28T04:08:37;98434.94;;;3.61;81.18
5609;BME280;2826;51.354;9.588;2024-02-28T04:11:04;98430.66;;;3.61;81.72
5609;BME280;2826;51.354;9.588;2024-02-28T04:13:30;98440.94;;;3.61;81.47
5609;BME280;2826;51.354;9.588;2024-02-28T04:15:57;98442.59;;;3.65;80.80
5609;BME280;2826;51.354;9.588;2024-02-28T04:18:24;98441.78;;;3.60;80.93
5609;BME280;2826;51.354;9.588;2024-02-28T04:20:50;98452.06;;;3.56;81.38
5609;BME280;2826;51.354;9.588;2024-02-28T04:23:17;98461.44;;;3.58;81.65
5609;BME280;2826;51.354;9.588;2024-02-28T04:25:44;98460.59;;;3.58;81.64
5609;BME280;2826;51.354;9.588;2024-02-28T04:28:11;98468.28;;;3.59;81.57
5609;BME280;2826;51.354;9.588;2024-02-28T04:30:37;98466.59;;;3.58;81.56
5609;BME280;2826;51.354;9.588;2024-02-28T04:33:04;98464.88;;;3.60;80.85
5609;BME280;2826;51.354;9.588;2024-02-28T04:35:31;98481.16;;;3.51;81.04
5609;BME280;2826;51.354;9.588;2024-02-28T04:37:58;98479.44;;;3.52;81.56
5609;BME280;2826;51.354;9.588;2024-02-28T04:40:26;98491.41;;;3.53;81.60
5609;BME280;2826;51.354;9.588;2024-02-28T04:42:52;98487.09;;;3.55;81.61
5609;BME280;2826;51.354;9.588;2024-02-28T04:45:19;98487.09;;;3.60;81.64
5609;BME280;2826;51.354;9.588;2024-02-28T04:47:46;98485.34;;;3.62;81.76
5609;BME280;2826;51.354;9.588;2024-02-28T04:50:13;98492.16;;;3.64;81.53
5609;BME280;2826;51.354;9.588;2024-02-28T04:52:39;98505.03;;;3.60;81.58
5609;BME280;2826;51.354;9.588;2024-02-28T04:55:26;98501.63;;;3.59;81.80
5609;BME280;2826;51.354;9.588;2024-02-28T04:57:52;98504.22;;;3.56;82.09
5609;BME280;2826;51.354;9.588;2024-02-28T05:00:19;98499.06;;;3.58;82.25
5609;BME280;2826;51.354;9.588;2024-02-28T05:02:45;98490.53;;;3.51;82.30
5609;BME280;2826;51.354;9.588;2024-02-28T05:05:12;98498.22;;;3.56;82.33
5609;BME280;2826;51.354;9.588;2024-02-28T05:07:39;98498.22;;;3.59;82.03
5609;BME280;2826;51.354;9.588;2024-02-28T05:10:07;98507.59;;;3.58;82.16
5609;BME280;2826;51.354;9.588;2024-02-28T05:12:35;98508.47;;;3.54;81.80
5609;BME280;2826;51.354;9.588;2024-02-28T05:15:02;98511.06;;;3.54;81.79
5609;BME280;2826;51.354;9.588;2024-02-28T05:17:29;98517.91;;;3.53;81.99
5609;BME280;2826;51.354;9.588;2024-02-28T05:19:56;98520.47;;;3.50;81.31
5609;BME280;2826;51.354;9.588;2024-02-28T05:22:23;98513.69;;;3.42;81.38
5609;BME280;2826;51.354;9.588;2024-02-28T05:24:50;98528.22;;;3.43;81.76
5609;BME280;2826;51.354;9.588;2024-02-28T05:27:17;98530.78;;;3.36;81.94
5609;BME280;2826;51.354;9.588;2024-02-28T05:29:45;98530.78;;;3.41;82.39
5609;BME280;2826;51.354;9.588;2024-02-28T05:32:12;98523.06;;;3.46;82.45
5609;BME280;2826;51.354;9.588;2024-02-28T05:34:38;98511.94;;;3.48;82.40
5609;BME280;2826;51.354;9.588;2024-02-28T05:37:05;98509.38;;;3.48;82.37
5609;BME280;2826;51.354;9.588;2024-02-28T05:39:32;98514.53;;;3.47;82.29
5609;BME280;2826;51.354;9.588;2024-02-28T05:41:58;98526.44;;;3.51;82.33
5609;BME280;2826;51.354;9.588;2024-02-28T05:44:25;98532.44;;;3.53;82.17
5609;BME280;2826;51.354;9.588;2024-02-28T05:46:53;98531.56;;;3.54;82.23
5609;BME280;2826;51.354;9.588;2024-02-28T05:49:19;98530.69;;;3.57;82.38
5609;BME280;2826;51.354;9.588;2024-02-28T05:51:48;98518.84;;;3.40;82.18
5609;BME280;2826;51.354;9.588;2024-02-28T05:54:14;98528.16;;;3.52;81.88
5609;BME280;2826;51.354;9.588;2024-02-28T05:56:41;98535.88;;;3.47;81.96
5609;BME280;2826;51.354;9.588;2024-02-28T05:59:08;98552.13;;;3.42;81.90
5609;BME280;2826;51.354;9.588;2024-02-28T06:01:34;98553.88;;;3.35;81.93
5609;BME280;2826;51.354;9.588;2024-02-28T06:04:03;98553.88;;;3.36;81.95
5609;BME280;2826;51.354;9.588;2024-02-28T06:06:29;98553.91;;;3.32;81.92
5609;BME280;2826;51.354;9.588;2024-02-28T06:08:56;98560.72;;;3.30;82.08
5609;BME280;2826;51.354;9.588;2024-02-28T06:11:22;98563.28;;;3.31;82.02
5609;BME280;2826;51.354;9.588;2024-02-28T06:13:51;98557.28;;;3.32;82.05
5609;BME280;2826;51.354;9.588;2024-02-28T06:16:18;98562.44;;;3.31;81.75
5609;BME280;2826;51.354;9.588;2024-02-28T06:18:45;98567.59;;;3.29;82.11
5609;BME280;2826;51.354;9.588;2024-02-28T06:21:14;98570.97;;;3.31;81.95
5609;BME280;2826;51.354;9.588;2024-02-28T06:23:40;98581.22;;;3.30;81.97
5609;BME280;2826;51.354;9.588;2024-02-28T06:26:07;98588.09;;;3.24;81.96
5609;BME280;2826;51.354;9.588;2024-02-28T06:28:40;98584.66;;;3.25;82.22
5609;BME280;2826;51.354;9.588;2024-02-28T06:31:12;98586.34;;;3.26;82.03
5609;BME280;2826;51.354;9.588;2024-02-28T06:33:38;98592.34;;;3.30;82.04
5609;BME280;2826;51.354;9.588;2024-02-28T06:36:06;98595.75;;;3.31;82.24
5609;BME280;2826;51.354;9.588;2024-02-28T06:38:34;98602.56;;;3.35;81.80
5609;BME280;2826;51.354;9.588;2024-02-28T06:41:02;98598.31;;;3.40;82.06
5609;BME280;2826;51.354;9.588;2024-02-28T06:43:28;98611.13;;;3.38;82.06
5609;BME280;2826;51.354;9.588;2024-02-28T06:45:55;98601.69;;;3.40;81.97
5609;BME280;2826;51.354;9.588;2024-02-28T06:48:21;98606.84;;;3.45;82.23
5609;BME280;2826;51.354;9.588;2024-02-28T06:50:48;98607.66;;;3.47;81.88
5609;BME280;2826;51.354;9.588;2024-02-28T06:53:15;98609.34;;;3.50;82.21
5609;BME280;2826;51.354;9.588;2024-02-28T06:55:43;98612.75;;;3.55;82.25
5609;BME280;2826;51.354;9.588;2024-02-28T06:58:11;98599.06;;;3.58;82.37
5609;BME280;2826;51.354;9.588;2024-02-28T07:00:37;98608.44;;;3.62;82.45
5609;BME280;2826;51.354;9.588;2024-02-28T07:03:04;98617.00;;;3.62;82.09
5609;BME280;2826;51.354;9.588;2024-02-28T07:05:31;98615.31;;;3.63;81.52
5609;BME280;2826;51.354;9.588;2024-02-28T07:07:59;98620.41;;;3.64;82.03
5609;BME280;2826;51.354;9.588;2024-02-28T07:10:25;98617.88;;;3.63;82.09
5609;BME280;2826;51.354;9.588;2024-02-28T07:12:53;98624.69;;;3.67;81.91
5609;BME280;2826;51.354;9.588;2024-02-28T07:15:20;98617.00;;;3.67;81.90
5609;BME280;2826;51.354;9.588;2024-02-28T07:17:47;98620.41;;;3.71;82.35
5609;BME280;2826;51.354;9.588;2024-02-28T07:20:14;98622.06;;;3.78;82.46
5609;BME280;2826;51.354;9.588;2024-02-28T07:22:42;98622.03;;;3.83;82.21
5609;BME280;2826;51.354;9.588;2024-02-28T07:25:09;98619.44;;;3.92;82.22
5609;BME280;2826;51.354;9.588;2024-02-28T07:27:36;98629.69;;;3.97;82.45
5609;BME280;2826;51.354;9.588;2024-02-28T07:30:05;98637.34;;;4.01;82.28
5609;BME280;2826;51.354;9.588;2024-02-28T07:32:32;98635.59;;;4.08;82.08
5609;BME280;2826;51.354;9.588;2024-02-28T07:35:00;98631.28;;;4.15;82.18
5609;BME280;2826;51.354;9.588;2024-02-28T07:37:26;98629.53;;;4.20;81.87
5609;BME280;2826;51.354;9.588;2024-02-28T07:39:53;98632.09;;;4.23;81.88
5609;BME280;2826;51.354;9.588;2024-02-28T07:42:20;98638.91;;;4.29;81.62
5609;BME280;2826;51.354;9.588;2024-02-28T07:44:46;98638.03;;;4.33;81.51
5609;BME280;2826;51.354;9.588;2024-02-28T07:47:15;98637.97;;;4.41;81.01
5609;BME280;2826;51.354;9.588;2024-02-28T07:49:43;98628.66;;;4.23;81.42
5609;BME280;2826;51.354;9.588;2024-02-28T07:52:10;98642.28;;;4.31;81.76
5609;BME280;2826;51.354;9.588;2024-02-28T07:54:36;98643.16;;;4.35;81.88
5609;BME280;2826;51.354;9.588;2024-02-28T07:57:03;98649.09;;;4.38;81.27
5609;BME280;2826;51.354;9.588;2024-02-28T07:59:30;98650.84;;;4.35;80.83
5609;BME280;2826;51.354;9.588;2024-02-28T08:01:56;98645.66;;;4.39;81.47
5609;BME280;2826;51.354;9.588;2024-02-28T08:04:24;98648.22;;;4.46;81.79
5609;BME280;2826;51.354;9.588;2024-02-28T08:06:51;98639.56;;;4.54;81.70
5609;BME280;2826;51.354;9.588;2024-02-28T08:09:18;98641.25;;;4.60;80.79
5609;BME280;2826;51.354;9.588;2024-02-28T08:11:45;98637.81;;;4.63;81.03
5609;BME280;2826;51.354;9.588;2024-02-28T08:14:11;98636.03;;;4.69;80.94
5609;BME280;2826;51.354;9.588;2024-02-28T08:16:38;98644.56;;;4.75;80.63
5609;BME280;2826;51.354;9.588;2024-02-28T08:19:05;98646.22;;;4.83;81.09
5609;BME280;2826;51.354;9.588;2024-02-28T08:21:33;98640.19;;;4.84;80.40
5609;BME280;2826;51.354;9.588;2024-02-28T08:23:59;98646.22;;;4.80;79.90
5609;BME280;2826;51.354;9.588;2024-02-28T08:26:28;98645.34;;;4.83;80.20
5609;BME280;2826;51.354;9.588;2024-02-28T08:28:55;98637.63;;;4.83;80.18
5609;BME280;2826;51.354;9.588;2024-02-28T08:31:21;98652.97;;;4.91;79.92
5609;BME280;2826;51.354;9.588;2024-02-28T08:33:48;98600.16;;;4.62;79.72
5609;BME280;2826;51.354;9.588;2024-02-28T08:36:15;98657.25;;;4.92;79.47
5609;BME280;2826;51.354;9.588;2024-02-28T08:38:43;98655.53;;;4.95;78.48
5609;BME280;2826;51.354;9.588;2024-02-28T08:41:10;98660.84;;;4.74;77.59
5609;BME280;2826;51.354;9.588;2024-02-28T08:43:38;98666.81;;;4.74;78.14
5609;BME280;2826;51.354;9.588;2024-02-28T08:46:05;98664.16;;;4.85;78.09
5609;BME280;2826;51.354;9.588;2024-02-28T08:48:31;98630.00;;;4.74;78.79
5609;BME280;2826;51.354;9.588;2024-02-28T08:50:58;98670.78;;;5.11;77.59
5609;BME280;2826;51.354;9.588;2024-02-28T08:53:26;98676.72;;;5.19;77.45
5609;BME280;2826;51.354;9.588;2024-02-28T08:55:54;98637.44;;;5.03;77.18
5609;BME280;2826;51.354;9.588;2024-02-28T08:58:20;98679.97;;;5.37;77.27
5609;BME280;2826;51.354;9.588;2024-02-28T09:00:47;98680.84;;;5.38;75.35
5609;BME280;2826;51.354;9.588;2024-02-28T09:03:15;98679.00;;;5.47;75.84
5609;BME280;2826;51.354;9.588;2024-02-28T09:05:41;98679.75;;;5.59;75.92
5609;BME280;2826;51.354;9.588;2024-02-28T09:08:08;98672.84;;;5.61;75.26
5609;BME280;2826;51.354;9.588;2024-02-28T09:10:35;98665.03;;;5.70;75.62
5609;BME280;2826;51.354;9.588;2024-02-28T09:13:03;98677.81;;;5.80;74.75
5609;BME280;2826;51.354;9.588;2024-02-28T09:15:32;98675.13;;;5.89;74.94
5609;BME280;2826;51.354;9.588;2024-02-28T09:17:59;98676.97;;;5.78;73.60
5609;BME280;2826;51.354;9.588;2024-02-28T09:20:26;98683.81;;;5.79;74.10
5609;BME280;2826;51.354;9.588;2024-02-28T09:22:53;98677.75;;;5.83;75.03
5609;BME280;2826;51.354;9.588;2024-02-28T09:25:19;98676.81;;;5.88;74.86
5609;BME280;2826;51.354;9.588;2024-02-28T09:27:46;98680.16;;;5.98;74.11
5609;BME280;2826;51.354;9.588;2024-02-28T09:30:14;98679.25;;;6.01;73.39
5609;BME280;2826;51.354;9.588;2024-02-28T09:32:42;98686.13;;;6.04;73.27
5609;BME280;2826;51.354;9.588;2024-02-28T09:35:08;98678.47;;;5.94;73.52
5609;BME280;2826;51.354;9.588;2024-02-28T09:37:36;98682.69;;;6.03;73.72
5609;BME280;2826;51.354;9.588;2024-02-28T09:40:04;98682.59;;;6.11;73.31
5609;BME280;2826;51.354;9.588;2024-02-28T09:42:31;98672.19;;;6.20;72.64
5609;BME280;2826;51.354;9.588;2024-02-28T09:45:00;98682.19;;;6.40;72.83
5609;BME280;2826;51.354;9.588;2024-02-28T09:47:28;98681.44;;;6.34;71.02
5609;BME280;2826;51.354;9.588;2024-02-28T09:49:57;98638.72;;;6.19;71.25
5609;BME280;2826;51.354;9.588;2024-02-28T09:52:25;98698.56;;;6.36;71.16
5609;BME280;2826;51.354;9.588;2024-02-28T09:54:53;98703.72;;;6.35;71.19
5609;BME280;2826;51.354;9.588;2024-02-28T09:57:20;98698.69;;;6.27;71.21
5609;BME280;2826;51.354;9.588;2024-02-28T09:59:54;98704.56;;;6.37;71.46
5609;BME280;2826;51.354;9.588;2024-02-28T10:02:23;98707.03;;;6.45;70.38
5609;BME280;2826;51.354;9.588;2024-02-28T10:04:52;98711.19;;;6.53;70.16
5609;BME280;2826;51.354;9.588;2024-02-28T10:07:19;98713.00;;;6.47;69.68
5609;BME280;2826;51.354;9.588;2024-02-28T10:09:45;98706.94;;;6.52;69.89
5609;BME280;2826;51.354;9.588;2024-02-28T10:12:12;98712.13;;;6.48;71.14
5609;BME280;2826;51.354;9.588;2024-02-28T10:14:39;98713.00;;;6.48;70.43
5609;BME280;2826;51.354;9.588;2024-02-28T10:17:05;98713.78;;;6.53;70.46
5609;BME280;2826;51.354;9.588;2024-02-28T10:19:33;98714.66;;;6.51;70.23
5609;BME280;2826;51.354;9.588;2024-02-28T10:22:01;98727.50;;;6.56;69.96
5609;BME280;2826;51.354;9.588;2024-02-28T10:24:28;98722.25;;;6.60;69.92
5609;BME280;2826;51.354;9.588;2024-02-28T10:26:55;98732.72;;;6.49;68.99
5609;BME280;2826;51.354;9.588;2024-02-28T10:29:22;98733.59;;;6.50;69.14
5609;BME280;2826;51.354;9.588;2024-02-28T10:31:49;98729.38;;;6.44;68.23
5609;BME280;2826;51.354;9.588;2024-02-28T10:34:16;98738.94;;;6.34;69.49
5609;BME280;2826;51.354;9.588;2024-02-28T10:36:44;98737.22;;;6.35;69.60
5609;BME280;2826;51.354;9.588;2024-02-28T10:39:13;98729.47;;;6.38;69.18
5609;BME280;2826;51.354;9.588;2024-02-28T10:41:41;98726.63;;;6.55;69.60
5609;BME280;2826;51.354;9.588;2024-02-28T10:44:08;98736.88;;;6.60;69.48
5609;BME280;2826;51.354;9.588;2024-02-28T10:46:37;98722.84;;;6.79;69.32
5609;BME280;2826;51.354;9.588;2024-02-28T10:49:04;98727.81;;;6.93;68.85
5609;BME280;2826;51.354;9.588;2024-02-28T10:51:34;98727.59;;;7.04;68.69
5609;BME280;2826;51.354;9.588;2024-02-28T10:54:07;98736.00;;;7.17;68.08
5609;BME280;2826;51.354;9.588;2024-02-28T10:56:36;98713.78;;;7.09;67.36
5609;BME280;2826;51.354;9.588;2024-02-28T10:59:05;98728.97;;;7.27;66.79
5609;BME280;2826;51.354;9.588;2024-02-28T11:01:34;98733.22;;;7.30;67.17
5609;BME280;2826;51.354;9.588;2024-02-28T11:04:01;98730.66;;;7.28;66.57
5609;BME280;2826;51.354;9.588;2024-02-28T11:06:28;98733.25;;;7.28;66.07
5609;BME280;2826;51.354;9.588;2024-02-28T11:08:58;98726.34;;;7.29;66.71
5609;BME280;2826;51.354;9.588;2024-02-28T11:11:30;98723.56;;;7.41;66.92
5609;BME280;2826;51.354;9.588;2024-02-28T11:13:59;98725.88;;;7.57;66.44
5609;BME280;2826;51.354;9.588;2024-02-28T11:16:27;98725.72;;;7.65;66.21
5609;BME280;2826;51.354;9.588;2024-02-28T11:18:54;98729.91;;;7.70;65.03
5609;BME280;2826;51.354;9.588;2024-02-28T11:21:23;98736.06;;;7.63;65.65
5609;BME280;2826;51.354;9.588;2024-02-28T11:23:51;98717.09;;;7.66;65.78
5609;BME280;2826;51.354;9.588;2024-02-28T11:26:17;98726.44;;;7.71;65.64
5609;BME280;2826;51.354;9.588;2024-02-28T11:28:45;98643.75;;;7.30;64.82
5609;BME280;2826;51.354;9.588;2024-02-28T11:31:13;98672.97;;;7.32;65.39
5609;BME280;2826;51.354;9.588;2024-02-28T11:33:40;98710.88;;;7.76;65.92
5609;BME280;2826;51.354;9.588;2024-02-28T11:36:07;98668.16;;;7.61;65.39
5609;BME280;2826;51.354;9.588;2024-02-28T11:38:34;98658.47;;;7.71;64.96
5609;BME280;2826;51.354;9.588;2024-02-28T11:41:03;98699.09;;;8.07;64.67
5609;BME280;2826;51.354;9.588;2024-02-28T11:43:31;98703.31;;;8.09;63.46
5609;BME280;2826;51.354;9.588;2024-02-28T11:45:58;98698.06;;;8.14;64.11
5609;BME280;2826;51.354;9.588;2024-02-28T11:48:26;98697.00;;;8.24;63.19
5609;BME280;2826;51.354;9.588;2024-02-28T11:50:54;98696.75;;;8.35;64.37
5609;BME280;2826;51.354;9.588;2024-02-28T11:53:20;98692.19;;;8.47;63.71
5609;BME280;2826;51.354;9.588;2024-02-28T11:55:47;98696.50;;;8.48;63.30
5609;BME280;2826;51.354;9.588;2024-02-28T11:58:14;98701.56;;;8.51;62.62
5609;BME280;2826;51.354;9.588;2024-02-28T12:00:51;98670.94;;;8.34;63.30
5609;BME280;2826;51.354;9.588;2024-02-28T12:03:21;98695.28;;;8.63;63.28
5609;BME280;2826;51.354;9.588;2024-02-28T12:05:50;98688.00;;;8.81;62.41
5609;BME280;2826;51.354;9.588;2024-02-28T12:08:17;98690.19;;;8.98;61.76
5609;BME280;2826;51.354;9.588;2024-02-28T12:10:44;98689.84;;;9.10;60.86
5609;BME280;2826;51.354;9.588;2024-02-28T12:13:11;98689.72;;;9.17;61.47
5609;BME280;2826;51.354;9.588;2024-02-28T12:15:39;98677.81;;;9.09;58.79
5609;BME280;2826;51.354;9.588;2024-02-28T12:18:08;98692.50;;;9.09;60.37
5609;BME280;2826;51.354;9.588;2024-02-28T12:20:35;98692.31;;;9.17;59.38
5609;BME280;2826;51.354;9.588;2024-02-28T12:23:04;98689.09;;;9.07;59.34
5609;BME280;2826;51.354;9.588;2024-02-28T12:25:31;98693.34;;;9.09;59.24
5609;BME280;2826;51.354;9.588;2024-02-28T12:27:57;98686.88;;;8.93;58.27
5609;BME280;2826;51.354;9.588;2024-02-28T12:30:24;98683.97;;;9.04;60.48
5609;BME280;2826;51.354;9.588;2024-02-28T12:32:51;98683.31;;;9.32;60.24
5609;BME280;2826;51.354;9.588;2024-02-28T12:35:18;98662.00;;;9.53;59.90
5609;BME280;2826;51.354;9.588;2024-02-28T12:37:45;98677.63;;;10.12;59.63
5609;BME280;2826;51.354;9.588;2024-02-28T12:40:16;98679.19;;;10.48;57.65
5609;BME280;2826;51.354;9.588;2024-02-28T12:42:43;98671.44;;;10.75;55.50
5609;BME280;2826;51.354;9.588;2024-02-28T12:45:10;98675.41;;;10.85;55.47
5609;BME280;2826;51.354;9.588;2024-02-28T12:47:36;98670.13;;;10.89;54.58
5609;BME280;2826;51.354;9.588;2024-02-28T12:50:04;98672.47;;;10.96;54.38
5609;BME280;2826;51.354;9.588;2024-02-28T12:52:32;98666.28;;;11.01;53.56
5609;BME280;2826;51.354;9.588;2024-02-28T12:54:59;98663.16;;;11.16;54.20
5609;BME280;2826;51.354;9.588;2024-02-28T12:57:27;98666.31;;;11.24;53.31
5609;BME280;2826;51.354;9.588;2024-02-28T12:59:54;98663.81;;;11.23;51.36
5609;BME280;2826;51.354;9.588;2024-02-28T13:02:21;98657.28;;;11.36;52.61
5609;BME280;2826;51.354;9.588;2024-02-28T13:04:48;98658.16;;;11.35;51.59
5609;BME280;2826;51.354;9.588;2024-02-28T13:07:15;98656.34;;;11.63;51.35
5609;BME280;2826;51.354;9.588;2024-02-28T13:09:42;98652.06;;;11.62;50.56
5609;BME280;2826;51.354;9.588;2024-02-28T13:12:08;98650.56;;;11.79;50.16
5609;BME280;2826;51.354;9.588;2024-02-28T13:14:36;98649.34;;;11.89;50.50
5609;BME280;2826;51.354;9.588;2024-02-28T13:17:03;98645.38;;;12.02;50.33
5609;BME280;2826;51.354;9.588;2024-02-28T13:19:31;98619.75;;;11.93;49.51
5609;BME280;2826;51.354;9.588;2024-02-28T13:21:57;98639.88;;;12.12;48.32
5609;BME280;2826;51.354;9.588;2024-02-28T13:24:24;98636.34;;;11.89;48.90
5609;BME280;2826;51.354;9.588;2024-02-28T13:26:50;98629.69;;;11.82;49.41
5609;BME280;2826;51.354;9.588;2024-02-28T13:29:17;98625.66;;;11.97;49.65
5609;BME280;2826;51.354;9.588;2024-02-28T13:31:45;98616.91;;;11.99;50.03